createdAt,value
2022-12-04T00:02:00.525Z,27.07
2022-12-04T00:07:06.162Z,28.27
2022-12-04T00:12:11.629Z,25.53
2022-12-04T00:17:17.222Z,28.13
2022-12-04T00:22:23.109Z,28.17
2022-12-04T00:27:28.572Z,27.47
2022-12-04T00:32:33.980Z,27.23
2022-12-04T00:37:39.436Z,26.23
2022-12-04T00:42:44.919Z,27.57
2022-12-04T00:47:50.330Z,27.53
2022-12-04T00:52:56.386Z,27.43
2022-12-04T00:58:01.795Z,27.23
2022-12-04T01:03:08.532Z,27.53
2022-12-04T01:08:14.590Z,28.40
2022-12-04T01:13:20.492Z,27.77
2022-12-04T01:18:25.999Z,26.80
2022-12-04T01:23:31.393Z,26.30
2022-12-04T01:28:37.028Z,27.43
2022-12-04T01:33:43.261Z,26.40
2022-12-04T01:38:48.827Z,27.80
2022-12-04T01:44:27.090Z,25.97
2022-12-04T01:49:47.757Z,25.40
2022-12-04T01:54:58.906Z,28.20
2022-12-04T02:00:07.340Z,26.50
2022-12-04T02:05:15.777Z,27.37
2022-12-04T02:10:24.796Z,26.17
2022-12-04T02:15:39.054Z,27.77
2022-12-04T02:20:59.562Z,28.33
2022-12-04T02:26:13.812Z,28.17
2022-12-04T02:31:22.294Z,26.73
2022-12-04T02:36:30.762Z,28.07
2022-12-04T02:41:39.265Z,29.80
2022-12-04T02:46:48.086Z,27.73
2022-12-04T02:51:56.065Z,27.63
2022-12-04T02:57:04.537Z,29.10
2022-12-04T03:02:28.282Z,26.80
2022-12-04T03:07:36.801Z,27.20
2022-12-04T03:12:46.035Z,28.33
2022-12-04T03:18:00.039Z,26.93
2022-12-04T03:23:11.402Z,28.23
2022-12-04T03:28:19.846Z,27.80
2022-12-04T03:33:31.382Z,24.90
2022-12-04T03:38:51.896Z,26.67
2022-12-04T03:44:15.562Z,25.23
2022-12-04T03:49:24.000Z,27.13
2022-12-04T03:54:35.371Z,27.47
2022-12-04T03:59:43.804Z,30.20
2022-12-04T04:04:52.500Z,28.80
2022-12-04T04:10:01.391Z,27.27
2022-12-04T04:15:30.692Z,27.80
2022-12-04T04:21:05.698Z,27.13
2022-12-04T04:26:14.116Z,27.17
2022-12-04T04:31:49.815Z,27.13
2022-12-04T04:37:04.213Z,29.27
2022-12-04T04:42:15.342Z,27.90
2022-12-04T04:47:23.839Z,28.60
2022-12-04T04:52:29.972Z,28.20
2022-12-04T04:57:37.458Z,26.63
2022-12-04T05:02:43.324Z,26.80
2022-12-04T05:07:49.043Z,28.77
2022-12-04T05:12:54.697Z,27.77
2022-12-04T05:18:00.089Z,29.77
2022-12-04T05:23:05.479Z,28.00
2022-12-04T05:28:11.234Z,28.70
2022-12-04T05:33:16.764Z,28.67
2022-12-04T05:38:22.173Z,27.77
2022-12-04T05:43:27.936Z,26.80
2022-12-04T05:48:34.841Z,28.77
2022-12-04T05:53:40.291Z,27.33
2022-12-04T05:58:45.762Z,25.67
2022-12-04T06:03:51.316Z,26.97
2022-12-04T06:08:58.864Z,25.03
2022-12-04T06:14:06.488Z,25.20
2022-12-04T06:19:14.918Z,24.80
2022-12-04T06:24:25.591Z,26.23
2022-12-04T06:29:31.141Z,25.97
2022-12-04T06:34:37.218Z,24.37
2022-12-04T06:39:42.706Z,25.43
2022-12-04T06:44:48.676Z,26.00
2022-12-04T06:49:54.671Z,24.10
2022-12-04T06:55:01.176Z,23.10
2022-12-04T07:00:07.827Z,23.80
2022-12-04T07:05:13.351Z,25.03
2022-12-04T07:10:18.876Z,25.40
2022-12-04T07:15:24.357Z,24.43
2022-12-04T07:20:30.220Z,24.63
2022-12-04T07:25:37.192Z,24.67
2022-12-04T07:30:42.747Z,22.80
2022-12-04T07:35:51.200Z,24.10
2022-12-04T07:41:01.264Z,24.10
2022-12-04T07:46:15.798Z,23.17
2022-12-04T07:51:23.971Z,23.33
2022-12-04T07:56:29.428Z,22.10
2022-12-04T08:01:35.053Z,22.97
2022-12-04T08:06:41.021Z,31.40
2022-12-04T08:11:46.468Z,25.73
2022-12-04T08:16:53.062Z,25.27
2022-12-04T08:21:58.699Z,22.77
2022-12-04T08:27:04.101Z,24.03
2022-12-04T08:32:09.731Z,23.03
2022-12-04T08:37:15.195Z,25.27
2022-12-04T08:42:20.593Z,23.23
2022-12-04T08:47:25.996Z,23.00
2022-12-04T08:52:32.340Z,23.47
2022-12-04T08:57:37.791Z,23.70
2022-12-04T09:02:43.327Z,25.03
2022-12-04T09:07:48.934Z,22.17
2022-12-04T09:12:54.495Z,24.57
2022-12-04T09:18:00.535Z,25.37
2022-12-04T09:23:06.561Z,23.83
2022-12-04T09:28:11.968Z,23.53
2022-12-04T09:33:17.528Z,23.83
2022-12-04T09:38:23.082Z,22.27
2022-12-04T09:43:31.584Z,23.33
2022-12-04T09:48:40.040Z,23.27
2022-12-04T09:54:00.409Z,23.33
2022-12-04T09:59:17.781Z,21.73
2022-12-04T10:04:23.493Z,22.87
2022-12-04T10:09:32.049Z,23.40
2022-12-04T10:14:43.621Z,22.30
2022-12-04T10:20:06.408Z,30.88
2022-12-04T10:25:23.866Z,26.33
2022-12-04T10:30:32.386Z,25.00
2022-12-04T10:35:40.961Z,25.73
2022-12-04T10:40:49.426Z,26.60
2022-12-04T10:45:54.894Z,27.00
2022-12-04T10:51:00.617Z,24.57
2022-12-04T10:56:18.216Z,25.63
2022-12-04T11:01:24.430Z,26.67
2022-12-04T11:06:30.787Z,26.30
2022-12-04T11:11:39.019Z,27.50
2022-12-04T11:16:49.260Z,27.80
2022-12-04T11:21:58.160Z,28.47
2022-12-04T11:27:06.439Z,29.57
2022-12-04T11:32:27.408Z,27.63
2022-12-04T11:37:39.229Z,27.27
2022-12-04T11:42:42.920Z,28.83
2022-12-04T11:48:00.398Z,27.17
2022-12-04T11:53:15.238Z,26.50
2022-12-04T11:58:39.051Z,25.43
2022-12-04T12:04:04.389Z,27.67
2022-12-04T12:09:27.991Z,25.50
2022-12-04T12:14:52.910Z,26.93
2022-12-04T12:20:26.904Z,26.10
2022-12-04T12:25:37.897Z,25.17
2022-12-04T12:31:05.975Z,24.10
2022-12-04T12:36:13.215Z,27.60
2022-12-04T12:41:27.489Z,27.93
2022-12-04T12:46:46.440Z,26.37
2022-12-04T12:52:09.777Z,27.33
2022-12-04T12:57:21.352Z,29.80
2022-12-04T13:02:35.867Z,26.27
2022-12-04T13:07:59.599Z,27.17
2022-12-04T13:13:10.966Z,26.20
2022-12-04T13:18:22.340Z,24.87
2022-12-04T13:23:48.729Z,26.43
2022-12-04T13:29:15.088Z,36.40
2022-12-04T13:34:26.400Z,28.43
2022-12-04T13:40:09.599Z,28.07
2022-12-04T13:45:30.122Z,28.50
2022-12-04T13:50:38.051Z,27.77
2022-12-04T13:55:43.454Z,27.70
2022-12-04T14:00:49.329Z,27.83
2022-12-04T14:05:55.609Z,27.27
2022-12-04T14:11:18.992Z,29.83
2022-12-04T14:16:33.098Z,27.60
2022-12-04T14:21:44.979Z,28.90
2022-12-04T14:32:08.517Z,25.30
2022-12-04T14:37:28.632Z,28.67
2022-12-04T14:42:41.414Z,28.67
2022-12-04T14:48:06.470Z,26.80
2022-12-04T14:53:26.722Z,27.33
2022-12-04T14:58:34.892Z,30.20
2022-12-04T15:03:43.564Z,28.47
2022-12-04T15:08:56.841Z,30.93
2022-12-04T15:14:08.117Z,27.97
2022-12-04T15:19:21.064Z,27.33
2022-12-04T15:24:27.598Z,26.60
2022-12-04T15:29:37.553Z,28.40
2022-12-04T15:34:46.798Z,26.23
2022-12-04T15:39:53.322Z,27.03
2022-12-04T15:45:04.099Z,27.23
2022-12-04T15:50:17.985Z,27.50
2022-12-04T15:55:25.729Z,28.97
2022-12-04T16:00:39.889Z,27.13
2022-12-04T16:05:45.646Z,28.23
2022-12-04T16:11:06.226Z,27.63
2022-12-04T16:16:21.048Z,26.03
2022-12-04T16:21:29.828Z,25.47
2022-12-04T16:26:35.807Z,24.07
2022-12-04T16:31:41.728Z,23.33
2022-12-04T16:36:47.231Z,26.20
2022-12-04T16:41:52.684Z,25.17
2022-12-04T16:46:58.331Z,26.20
2022-12-04T16:52:04.223Z,27.13
2022-12-04T16:57:10.844Z,25.40
2022-12-04T17:02:19.369Z,28.23
2022-12-04T17:07:24.842Z,26.70
2022-12-04T17:12:30.463Z,26.03
2022-12-04T17:17:35.937Z,28.13
2022-12-04T17:22:41.833Z,26.43
2022-12-04T17:27:47.318Z,27.33
2022-12-04T17:32:52.894Z,28.10
2022-12-04T17:38:03.804Z,26.00
2022-12-04T17:43:06.425Z,24.73
2022-12-04T17:48:11.889Z,25.90
2022-12-04T17:53:17.362Z,25.23
2022-12-04T17:58:22.759Z,25.07
2022-12-04T18:03:29.405Z,24.53
2022-12-04T18:08:34.904Z,24.70
2022-12-04T18:13:40.684Z,24.87
2022-12-04T18:18:50.844Z,23.93
2022-12-04T18:24:04.022Z,27.07
2022-12-04T18:29:11.759Z,23.87
2022-12-04T18:34:17.597Z,26.63
2022-12-04T18:39:24.813Z,24.17
2022-12-04T18:44:30.272Z,25.13
2022-12-04T18:49:35.734Z,24.67
2022-12-04T18:54:41.195Z,25.20
2022-12-04T18:59:46.663Z,25.70
2022-12-04T19:04:52.184Z,26.37
2022-12-04T19:10:12.994Z,25.13
2022-12-04T19:15:05.153Z,26.57
2022-12-04T19:20:11.460Z,27.30
2022-12-04T19:25:17.195Z,26.07
2022-12-04T19:30:22.628Z,26.53
2022-12-04T19:35:28.613Z,26.17
2022-12-04T19:40:34.011Z,22.73
2022-12-04T19:45:39.931Z,24.07
2022-12-04T19:50:45.430Z,23.17
2022-12-04T19:55:50.823Z,23.77
2022-12-04T20:00:57.041Z,22.77
2022-12-04T20:06:07.578Z,23.77
2022-12-04T20:11:18.188Z,25.33
2022-12-04T20:16:25.421Z,24.33
2022-12-04T20:21:32.517Z,24.50
2022-12-04T20:26:40.042Z,22.30
2022-12-04T20:31:47.653Z,24.37
2022-12-04T20:36:53.361Z,23.67
2022-12-04T20:42:00.524Z,23.30
2022-12-04T20:47:05.980Z,25.30
2022-12-04T20:52:11.958Z,24.40
2022-12-04T20:57:17.440Z,24.57
2022-12-04T21:02:22.913Z,24.30
2022-12-04T21:07:28.375Z,23.37
2022-12-04T21:12:52.682Z,23.83
2022-12-04T21:17:59.601Z,24.63
2022-12-04T21:23:05.012Z,22.97
2022-12-04T21:28:10.441Z,23.90
2022-12-04T21:33:16.596Z,22.93
2022-12-04T21:38:22.259Z,23.57
2022-12-04T21:43:29.760Z,23.37
2022-12-04T21:48:38.202Z,23.70
2022-12-04T21:53:43.683Z,22.30
2022-12-04T21:58:49.195Z,21.63
2022-12-04T22:03:56.567Z,21.50
2022-12-04T22:09:02.140Z,20.63
2022-12-04T22:14:08.578Z,23.47
2022-12-04T22:19:14.399Z,22.67
2022-12-04T22:24:19.787Z,22.97
2022-12-04T22:34:32.344Z,22.17
2022-12-04T22:39:37.819Z,22.20
2022-12-04T22:44:43.290Z,21.33
2022-12-04T22:49:48.708Z,21.73
2022-12-04T22:54:54.238Z,21.10
2022-12-04T22:59:59.860Z,21.47
2022-12-04T23:05:05.921Z,21.77
2022-12-04T23:10:11.596Z,21.37
2022-12-04T23:15:17.146Z,23.17
2022-12-04T23:20:22.539Z,22.27
2022-12-04T23:25:28.467Z,22.37
2022-12-04T23:30:36.583Z,19.27
2022-12-04T23:35:41.176Z,20.00
2022-12-04T23:40:46.888Z,21.60
2022-12-04T23:45:52.274Z,21.50
2022-12-04T23:50:57.768Z,22.10
2022-12-04T23:56:12.414Z,18.33
